createdAt,value
2022-09-09T00:00:26.616Z,2.20
2022-09-09T00:03:28.213Z,6.50
2022-09-09T00:06:03.337Z,4.43
2022-09-09T00:09:11.481Z,4.28
2022-09-09T00:11:47.651Z,3.40
2022-09-09T00:14:26.560Z,5.07
2022-09-09T00:17:03.231Z,2.35
2022-09-09T00:19:47.341Z,6.55
2022-09-09T00:22:20.821Z,2.10
2022-09-09T00:24:54.506Z,4.18
2022-09-09T00:27:46.498Z,6.00
2022-09-09T00:30:23.658Z,6.63
2022-09-09T00:32:59.333Z,2.83
2022-09-09T00:35:32.357Z,4.25
2022-09-09T00:38:10.759Z,1.90
2022-09-09T00:40:50.229Z,4.93
2022-09-09T00:43:32.844Z,3.33
2022-09-09T00:46:12.160Z,5.25
2022-09-09T00:48:53.505Z,2.10
2022-09-09T00:51:40.424Z,4.13
2022-09-09T00:54:11.343Z,3.60
2022-09-09T00:56:47.091Z,2.45
2022-09-09T00:59:37.417Z,3.17
2022-09-09T01:02:29.896Z,5.28
2022-09-09T01:05:09.041Z,2.53
2022-09-09T01:07:37.444Z,8.23
2022-09-09T01:10:13.972Z,4.05
2022-09-09T01:12:48.110Z,3.03
2022-09-09T01:15:26.983Z,2.13
2022-09-09T01:18:11.514Z,2.30
2022-09-09T01:20:56.692Z,4.32
2022-09-09T01:26:30.010Z,3.55
2022-09-09T01:29:00.899Z,3.83
2022-09-09T01:31:38.502Z,5.70
2022-09-09T01:34:16.615Z,3.50
2022-09-09T01:36:47.487Z,5.07
2022-09-09T01:39:15.244Z,2.47
2022-09-09T01:41:43.962Z,2.55
2022-09-09T01:44:13.898Z,4.60
2022-09-09T01:46:45.053Z,3.83
2022-09-09T01:49:17.944Z,3.20
2022-09-09T01:51:50.453Z,2.22
2022-09-09T01:54:20.269Z,2.60
2022-09-09T01:57:09.919Z,1.52
2022-09-09T02:00:05.220Z,4.80
2022-09-09T02:03:00.798Z,3.20
2022-09-09T02:05:36.450Z,5.03
2022-09-09T02:08:12.519Z,2.55
2022-09-09T02:11:23.946Z,2.83
2022-09-09T02:14:06.256Z,6.07
2022-09-09T02:16:51.177Z,3.53
2022-09-09T02:19:35.815Z,5.85
2022-09-09T02:22:10.245Z,3.03
2022-09-09T02:24:39.986Z,3.03
2022-09-09T02:27:18.226Z,8.38
2022-09-09T02:29:48.303Z,4.22
2022-09-09T02:32:23.334Z,6.45
2022-09-09T02:35:00.404Z,4.07
2022-09-09T02:37:33.109Z,3.70
2022-09-09T02:40:00.702Z,2.03
2022-09-09T02:42:27.937Z,6.70
2022-09-09T02:44:57.087Z,3.33
2022-09-09T02:47:44.562Z,2.42
2022-09-09T02:50:30.120Z,2.95
2022-09-09T02:53:26.244Z,4.30
2022-09-09T02:56:00.569Z,3.78
2022-09-09T02:58:28.948Z,2.40
2022-09-09T03:01:04.129Z,5.90
2022-09-09T03:03:33.222Z,2.72
2022-09-09T03:08:31.115Z,5.93
2022-09-09T03:11:02.438Z,3.42
2022-09-09T03:13:32.639Z,2.80
2022-09-09T03:16:00.723Z,4.72
2022-09-09T03:18:30.096Z,4.75
2022-09-09T03:21:00.705Z,5.03
2022-09-09T03:23:29.282Z,4.68
2022-09-09T03:25:59.679Z,5.68
2022-09-09T03:28:36.735Z,4.82
2022-09-09T03:31:06.128Z,7.72
2022-09-09T03:33:39.141Z,7.28
2022-09-09T03:36:09.531Z,7.25
2022-09-09T03:38:37.427Z,8.98
2022-09-09T03:41:07.353Z,10.32
2022-09-09T03:43:35.437Z,9.27
2022-09-09T03:46:02.669Z,12.95
2022-09-09T03:48:30.679Z,13.13
2022-09-09T03:51:02.198Z,13.23
2022-09-09T03:53:31.366Z,12.93
2022-09-09T03:56:00.911Z,11.23
2022-09-09T03:58:29.592Z,12.30
2022-09-09T04:01:09.923Z,14.57
2022-09-09T04:03:38.714Z,16.65
2022-09-09T04:06:08.968Z,13.73
2022-09-09T04:08:37.416Z,12.68
2022-09-09T04:11:07.587Z,12.23
2022-09-09T04:13:41.250Z,9.43
2022-09-09T04:16:12.680Z,10.00
2022-09-09T04:18:40.871Z,12.40
2022-09-09T04:21:11.250Z,11.68
2022-09-09T04:23:39.365Z,17.77
2022-09-09T04:26:07.305Z,12.25
2022-09-09T04:28:37.553Z,12.90
2022-09-09T04:31:17.819Z,14.73
2022-09-09T04:33:47.432Z,14.27
2022-09-09T04:36:15.292Z,12.45
2022-09-09T04:38:43.040Z,10.98
2022-09-09T04:41:12.083Z,11.57
2022-09-09T04:43:41.816Z,12.63
2022-09-09T04:46:09.835Z,10.02
2022-09-09T04:48:37.111Z,12.88
2022-09-09T04:51:10.406Z,11.18
2022-09-09T04:53:39.117Z,14.17
2022-09-09T04:56:12.306Z,12.07
2022-09-09T04:58:44.154Z,15.75
2022-09-09T05:01:22.586Z,14.88
2022-09-09T05:03:51.637Z,13.82
2022-09-09T05:06:22.766Z,13.75
2022-09-09T05:08:54.169Z,13.73
2022-09-09T05:11:31.067Z,15.50
2022-09-09T05:14:03.566Z,15.07
2022-09-09T05:16:32.346Z,16.40
2022-09-09T05:19:00.270Z,14.57
2022-09-09T05:21:35.659Z,14.30
2022-09-09T05:24:03.053Z,16.17
2022-09-09T05:26:33.541Z,18.08
2022-09-09T05:29:02.287Z,15.63
2022-09-09T05:31:31.944Z,13.52
2022-09-09T05:34:03.576Z,12.65
2022-09-09T05:36:30.822Z,16.45
2022-09-09T05:38:58.180Z,13.05
2022-09-09T05:41:28.414Z,15.60
2022-09-09T05:43:57.492Z,13.35
2022-09-09T05:46:26.397Z,11.27
2022-09-09T05:48:55.308Z,14.73
2022-09-09T05:51:33.213Z,12.13
2022-09-09T05:54:05.835Z,10.48
2022-09-09T05:56:37.433Z,10.52
2022-09-09T05:59:07.937Z,12.18
2022-09-09T06:01:37.431Z,12.25
2022-09-09T06:04:06.027Z,9.98
2022-09-09T06:06:37.855Z,7.90
2022-09-09T06:09:26.745Z,12.90
2022-09-09T06:11:55.347Z,10.55
2022-09-09T06:14:23.610Z,8.85
2022-09-09T06:16:53.003Z,10.80
2022-09-09T06:19:27.466Z,10.05
2022-09-09T06:21:57.022Z,11.00
2022-09-09T06:24:24.262Z,10.15
2022-09-09T06:26:51.881Z,10.98
2022-09-09T06:31:52.331Z,7.72
2022-09-09T06:34:22.795Z,7.82
2022-09-09T06:37:00.817Z,8.63
2022-09-09T06:39:37.608Z,5.78
2022-09-09T06:42:05.166Z,8.63
2022-09-09T06:44:55.581Z,9.07
2022-09-09T06:47:31.173Z,7.50
2022-09-09T06:49:59.466Z,7.43
2022-09-09T06:52:26.965Z,10.63
2022-09-09T06:54:56.127Z,7.28
2022-09-09T06:57:39.043Z,11.73
2022-09-09T07:00:15.224Z,6.65
2022-09-09T07:02:42.707Z,8.43
2022-09-09T07:05:11.076Z,8.80
2022-09-09T07:07:39.985Z,7.43
2022-09-09T07:10:08.610Z,7.65
2022-09-09T07:12:38.610Z,7.32
2022-09-09T07:15:07.364Z,9.02
2022-09-09T07:17:34.631Z,8.27
2022-09-09T07:20:03.699Z,5.95
2022-09-09T07:22:31.581Z,6.80
2022-09-09T07:24:59.323Z,12.60
2022-09-09T07:27:26.855Z,8.23
2022-09-09T07:29:55.448Z,10.13
2022-09-09T07:32:22.929Z,8.95
2022-09-09T07:34:51.676Z,8.30
2022-09-09T07:37:19.098Z,9.75
2022-09-09T07:39:47.756Z,10.85
2022-09-09T07:42:15.914Z,9.85
2022-09-09T07:44:43.413Z,8.35
2022-09-09T07:47:14.123Z,9.23
2022-09-09T07:49:47.309Z,11.70
2022-09-09T07:52:19.644Z,12.88
2022-09-09T07:54:51.620Z,8.93
2022-09-09T07:57:19.479Z,8.77
2022-09-09T07:59:47.688Z,8.25
2022-09-09T08:02:15.185Z,11.13
2022-09-09T08:04:42.857Z,9.23
2022-09-09T08:07:11.725Z,7.40
2022-09-09T08:09:46.129Z,5.38
2022-09-09T08:12:19.938Z,7.63
2022-09-09T08:14:47.446Z,8.43
2022-09-09T08:17:15.092Z,6.15
2022-09-09T08:19:43.515Z,6.65
2022-09-09T08:22:15.596Z,8.05
2022-09-09T08:24:42.810Z,5.25
2022-09-09T08:27:11.049Z,6.90
2022-09-09T08:29:40.055Z,9.02
2022-09-09T08:32:07.409Z,9.45
2022-09-09T08:34:35.684Z,6.82
2022-09-09T08:37:08.265Z,8.20
2022-09-09T08:39:39.280Z,10.03
2022-09-09T08:42:42.154Z,8.70
2022-09-09T08:45:25.807Z,10.05
2022-09-09T08:48:05.746Z,8.82
2022-09-09T08:50:39.583Z,9.88
2022-09-09T08:53:32.692Z,10.65
2022-09-09T08:56:04.602Z,9.67
2022-09-09T08:58:50.095Z,12.10
2022-09-09T09:01:42.160Z,10.73
2022-09-09T09:04:36.610Z,6.38
2022-09-09T09:07:32.114Z,6.80
2022-09-09T09:10:30.452Z,11.82
2022-09-09T09:12:58.010Z,10.88
2022-09-09T09:15:32.682Z,8.57
2022-09-09T09:18:00.748Z,7.18
2022-09-09T09:20:47.562Z,7.70
2022-09-09T09:23:23.606Z,11.18
2022-09-09T09:25:53.342Z,11.38
2022-09-09T09:28:26.991Z,10.30
2022-09-09T09:31:10.161Z,7.28
2022-09-09T09:33:50.741Z,9.63
2022-09-09T09:36:21.428Z,10.60
2022-09-09T09:41:47.161Z,10.20
2022-09-09T09:44:30.576Z,11.50
2022-09-09T09:47:16.833Z,10.35
2022-09-09T09:50:00.725Z,11.98
2022-09-09T09:52:33.245Z,10.80
2022-09-09T09:55:08.310Z,11.98
2022-09-09T09:57:37.705Z,8.85
2022-09-09T10:00:16.581Z,12.52
2022-09-09T10:02:48.197Z,14.52
2022-09-09T10:05:27.635Z,17.45
2022-09-09T10:08:11.605Z,13.00
2022-09-09T10:11:00.728Z,14.93
2022-09-09T10:13:33.901Z,15.85
2022-09-09T10:16:22.701Z,12.00
2022-09-09T10:19:14.102Z,11.25
2022-09-09T10:22:23.435Z,11.15
2022-09-09T10:25:07.212Z,13.68
2022-09-09T10:28:06.348Z,12.77
2022-09-09T10:30:56.584Z,12.23
2022-09-09T10:33:37.148Z,11.07
2022-09-09T10:36:20.145Z,13.98
2022-09-09T10:39:16.881Z,12.70
2022-09-09T10:42:13.642Z,14.32
2022-09-09T10:44:50.196Z,14.38
2022-09-09T10:47:40.675Z,14.30
2022-09-09T10:50:14.237Z,16.13
2022-09-09T10:53:00.541Z,15.63
2022-09-09T10:55:43.208Z,13.70
2022-09-09T10:58:18.512Z,14.07
2022-09-09T11:00:53.731Z,14.32
2022-09-09T11:03:26.954Z,16.35
2022-09-09T11:06:07.876Z,14.00
2022-09-09T11:08:39.464Z,15.05
2022-09-09T11:13:54.882Z,13.65
2022-09-09T11:19:01.732Z,11.90
2022-09-09T11:21:38.757Z,13.35
2022-09-09T11:24:29.583Z,15.07
2022-09-09T11:27:04.060Z,13.55
2022-09-09T11:29:45.162Z,13.68
2022-09-09T11:32:31.461Z,16.13
2022-09-09T11:35:18.352Z,16.60
2022-09-09T11:37:57.989Z,15.38
2022-09-09T11:40:27.507Z,14.90
2022-09-09T11:43:41.939Z,16.83
2022-09-09T11:46:11.176Z,15.70
2022-09-09T11:48:44.397Z,16.73
2022-09-09T11:51:22.033Z,15.60
2022-09-09T11:53:53.974Z,15.43
2022-09-09T11:59:30.048Z,17.05
2022-09-09T12:02:37.698Z,16.02
2022-09-09T12:05:16.760Z,16.48
2022-09-09T12:07:54.872Z,16.73
2022-09-09T12:10:34.470Z,16.33
2022-09-09T12:13:20.336Z,16.60
2022-09-09T12:15:50.742Z,13.95
2022-09-09T12:18:24.994Z,14.85
2022-09-09T12:21:08.909Z,14.27
2022-09-09T12:23:47.804Z,17.55
2022-09-09T12:26:40.057Z,16.17
2022-09-09T12:32:15.309Z,20.38
2022-09-09T12:34:47.876Z,21.90
2022-09-09T12:37:55.149Z,18.10
2022-09-09T12:40:32.600Z,19.45
2022-09-09T12:43:02.329Z,23.05
2022-09-09T12:45:33.886Z,19.58
2022-09-09T12:48:09.569Z,24.50
2022-09-09T12:50:39.737Z,24.83
2022-09-09T12:53:16.684Z,32.90
2022-09-09T12:56:11.541Z,27.77
2022-09-09T12:58:41.020Z,26.70
2022-09-09T13:01:22.268Z,25.08
2022-09-09T13:03:50.066Z,22.08
2022-09-09T13:06:32.493Z,20.35
2022-09-09T13:09:02.536Z,20.85
2022-09-09T13:11:43.310Z,18.30
2022-09-09T13:14:40.345Z,22.45
2022-09-09T13:17:18.331Z,21.75
2022-09-09T13:19:51.471Z,16.35
2022-09-09T13:22:32.028Z,22.20
2022-09-09T13:25:11.747Z,17.15
2022-09-09T13:27:42.058Z,19.88
2022-09-09T13:30:24.455Z,21.10
2022-09-09T13:33:24.238Z,27.55
2022-09-09T13:36:05.467Z,20.52
2022-09-09T13:38:36.825Z,25.93
2022-09-09T13:41:05.610Z,27.95
2022-09-09T13:43:39.400Z,23.33
2022-09-09T13:46:31.205Z,25.05
2022-09-09T13:49:12.453Z,25.42
2022-09-09T13:51:43.352Z,30.58
2022-09-09T13:54:12.375Z,28.70
2022-09-09T13:56:41.382Z,34.28
2022-09-09T13:59:17.500Z,28.88
2022-09-09T14:01:45.379Z,35.80
2022-09-09T14:04:13.180Z,33.85
2022-09-09T14:06:40.775Z,35.10
2022-09-09T14:09:11.367Z,38.05
2022-09-09T14:11:39.691Z,37.50
2022-09-09T14:14:06.867Z,42.92
2022-09-09T14:16:34.431Z,37.45
2022-09-09T14:19:02.170Z,36.97
2022-09-09T14:21:29.609Z,47.08
2022-09-09T14:23:59.085Z,41.38
2022-09-09T14:26:27.332Z,43.03
2022-09-09T14:28:55.796Z,43.40
2022-09-09T14:31:25.506Z,43.28
2022-09-09T14:33:53.846Z,44.60
2022-09-09T14:36:21.633Z,45.28
2022-09-09T14:38:49.312Z,46.15
2022-09-09T14:41:18.784Z,46.40
2022-09-09T14:43:46.706Z,46.33
2022-09-09T14:46:16.988Z,48.20
2022-09-09T14:48:45.284Z,46.80
2022-09-09T14:51:24.163Z,47.28
2022-09-09T14:54:00.240Z,48.88
2022-09-09T14:56:30.824Z,50.17
2022-09-09T14:59:01.826Z,50.67
2022-09-09T15:01:31.162Z,47.03
2022-09-09T15:04:00.965Z,49.13
2022-09-09T15:06:32.769Z,49.65
2022-09-09T15:09:01.417Z,48.80
2022-09-09T15:11:35.540Z,49.92
2022-09-09T15:14:03.154Z,155.10
2022-09-09T15:16:30.438Z,51.60
2022-09-09T15:18:59.058Z,56.05
2022-09-09T15:21:32.092Z,53.10
2022-09-09T15:24:00.251Z,58.80
2022-09-09T15:26:28.774Z,57.28
2022-09-09T15:28:56.064Z,54.92
2022-09-09T15:31:25.937Z,55.92
2022-09-09T15:34:01.500Z,60.13
2022-09-09T15:36:40.404Z,77.13
2022-09-09T15:39:13.640Z,64.75
2022-09-09T15:41:41.457Z,70.63
2022-09-09T15:44:10.487Z,79.75
2022-09-09T15:46:52.433Z,63.28
2022-09-09T15:49:28.582Z,60.28
2022-09-09T15:51:58.445Z,65.45
2022-09-09T15:54:27.166Z,63.85
2022-09-09T15:56:59.747Z,132.82
2022-09-09T15:59:29.177Z,86.45
2022-09-09T16:01:56.972Z,66.90
2022-09-09T16:04:25.537Z,65.60
2022-09-09T16:07:04.626Z,65.88
2022-09-09T16:09:32.996Z,68.82
2022-09-09T16:12:07.432Z,68.82
2022-09-09T16:14:36.757Z,91.22
2022-09-09T16:17:04.866Z,68.45
2022-09-09T16:19:32.796Z,96.78
2022-09-09T16:21:59.945Z,80.15
2022-09-09T16:24:27.807Z,74.10
2022-09-09T16:26:55.562Z,112.35
2022-09-09T16:29:23.684Z,151.73
2022-09-09T16:31:51.606Z,132.13
2022-09-09T16:34:19.670Z,97.50
2022-09-09T16:36:48.118Z,89.07
2022-09-09T16:39:17.975Z,115.22
2022-09-09T16:41:46.689Z,84.55
2022-09-09T16:44:16.679Z,108.35
2022-09-09T16:46:44.918Z,131.55
2022-09-09T16:49:15.849Z,162.25
2022-09-09T16:51:48.537Z,71.63
2022-09-09T16:54:18.250Z,97.10
2022-09-09T16:56:48.143Z,160.75
2022-09-09T16:59:17.604Z,96.43
2022-09-09T17:01:47.182Z,267.33
2022-09-09T17:04:25.175Z,174.50
2022-09-09T17:06:54.890Z,134.98
2022-09-09T17:09:23.898Z,98.47
2022-09-09T17:11:53.243Z,94.65
2022-09-09T17:14:23.523Z,168.60
2022-09-09T17:16:50.977Z,122.05
2022-09-09T17:19:18.913Z,108.72
2022-09-09T17:22:22.142Z,89.75
2022-09-09T17:24:36.085Z,127.72
2022-09-09T17:27:03.578Z,164.93
2022-09-09T17:29:30.782Z,125.70
2022-09-09T17:31:58.095Z,129.45
2022-09-09T17:34:26.231Z,140.07
2022-09-09T17:36:53.535Z,117.18
2022-09-09T17:39:21.179Z,129.40
2022-09-09T17:41:48.659Z,126.90
2022-09-09T17:44:16.451Z,101.32
2022-09-09T17:46:44.399Z,128.38
2022-09-09T17:49:18.378Z,192.07
2022-09-09T17:51:46.726Z,138.38
2022-09-09T17:54:21.176Z,195.02
2022-09-09T17:56:49.048Z,108.90
2022-09-09T17:59:18.683Z,144.52
2022-09-09T18:01:48.048Z,126.53
2022-09-09T18:04:17.456Z,111.95
2022-09-09T18:06:51.188Z,117.22
2022-09-09T18:09:21.928Z,126.15
2022-09-09T18:11:51.996Z,126.97
2022-09-09T18:14:22.413Z,179.40
2022-09-09T18:16:49.724Z,114.80
2022-09-09T18:19:21.314Z,161.15
2022-09-09T18:21:49.395Z,144.70
2022-09-09T18:24:19.939Z,159.93
2022-09-09T18:26:48.703Z,153.43
2022-09-09T18:29:20.067Z,198.15
2022-09-09T18:31:48.829Z,181.45
2022-09-09T18:34:18.262Z,170.25
2022-09-09T18:36:56.210Z,147.60
2022-09-09T18:39:28.121Z,168.07
2022-09-09T18:41:59.672Z,156.95
2022-09-09T18:46:55.308Z,256.27
2022-09-09T18:49:24.678Z,177.40
2022-09-09T18:51:52.769Z,238.40
2022-09-09T18:54:26.236Z,167.13
2022-09-09T18:56:53.634Z,170.30
2022-09-09T18:59:23.831Z,156.07
2022-09-09T19:01:53.027Z,146.57
2022-09-09T19:04:24.619Z,140.50
2022-09-09T19:06:57.980Z,148.32
2022-09-09T19:09:32.451Z,148.27
2022-09-09T19:12:00.852Z,126.45
2022-09-09T19:14:29.363Z,130.57
2022-09-09T19:16:56.747Z,126.53
2022-09-09T19:19:27.051Z,135.82
2022-09-09T19:21:57.953Z,128.98
2022-09-09T19:24:28.712Z,118.57
2022-09-09T19:26:58.906Z,129.60
2022-09-09T19:29:30.171Z,132.10
2022-09-09T19:34:47.068Z,126.07
2022-09-09T19:37:18.161Z,128.77
2022-09-09T19:39:47.207Z,147.93
2022-09-09T19:42:15.217Z,126.20
2022-09-09T19:44:42.750Z,126.22
2022-09-09T19:47:10.100Z,130.45
2022-09-09T19:49:37.324Z,128.55
2022-09-09T19:52:04.837Z,109.68
2022-09-09T19:54:32.767Z,116.32
2022-09-09T19:57:01.271Z,112.88
2022-09-09T19:59:29.030Z,124.53
2022-09-09T20:01:56.942Z,110.97
2022-09-09T20:04:24.746Z,112.50
2022-09-09T20:06:53.306Z,103.47
2022-09-09T20:09:21.770Z,105.38
2022-09-09T20:11:50.177Z,110.50
2022-09-09T20:14:18.455Z,108.50
2022-09-09T20:16:46.502Z,107.53
2022-09-09T20:19:16.380Z,111.45
2022-09-09T20:21:47.839Z,114.03
2022-09-09T20:24:18.762Z,110.97
2022-09-09T20:26:49.251Z,105.73
2022-09-09T20:29:19.521Z,122.07
2022-09-09T20:31:48.092Z,106.63
2022-09-09T20:34:19.052Z,107.57
2022-09-09T20:36:46.706Z,110.72
2022-09-09T20:39:16.976Z,103.22
2022-09-09T20:41:46.137Z,108.43
2022-09-09T20:44:16.953Z,112.93
2022-09-09T20:46:49.657Z,108.55
2022-09-09T20:49:19.675Z,111.18
2022-09-09T20:51:49.791Z,107.25
2022-09-09T20:54:20.802Z,105.32
2022-09-09T20:56:50.417Z,109.38
2022-09-09T20:59:21.023Z,110.32
2022-09-09T21:01:49.117Z,105.53
2022-09-09T21:04:18.339Z,109.97
2022-09-09T21:06:46.014Z,109.72
2022-09-09T21:09:13.920Z,106.63
2022-09-09T21:11:42.246Z,107.88
2022-09-09T21:14:10.074Z,101.95
2022-09-09T21:16:37.364Z,99.63
2022-09-09T21:19:05.363Z,98.15
2022-09-09T21:21:32.704Z,99.25
2022-09-09T21:24:00.677Z,97.60
2022-09-09T21:26:28.460Z,101.70
2022-09-09T21:28:56.008Z,100.78
2022-09-09T21:31:27.876Z,102.85
2022-09-09T21:33:59.586Z,102.60
2022-09-09T21:36:28.601Z,107.00
2022-09-09T21:38:59.230Z,119.72
2022-09-09T21:41:26.985Z,109.80
2022-09-09T21:43:55.141Z,111.70
2022-09-09T21:46:23.681Z,107.78
2022-09-09T21:48:51.105Z,118.22
2022-09-09T21:51:19.031Z,117.40
2022-09-09T21:53:46.581Z,115.68
2022-09-09T21:56:17.383Z,114.13
2022-09-09T21:58:46.119Z,94.10
2022-09-09T22:01:17.637Z,117.05
2022-09-09T22:03:45.434Z,108.90
2022-09-09T22:06:15.573Z,120.30
2022-09-09T22:08:43.687Z,114.65
2022-09-09T22:11:17.274Z,109.80
2022-09-09T22:13:48.990Z,111.72
2022-09-09T22:16:19.464Z,109.03
2022-09-09T22:18:54.982Z,116.30
2022-09-09T22:21:23.115Z,108.25
2022-09-09T22:23:55.942Z,104.05
2022-09-09T22:26:25.495Z,103.05
2022-09-09T22:28:54.028Z,107.85
2022-09-09T22:31:23.098Z,103.38
2022-09-09T22:33:51.976Z,102.03
2022-09-09T22:36:20.476Z,96.85
2022-09-09T22:38:49.073Z,91.53
2022-09-09T22:41:17.233Z,91.05
2022-09-09T22:43:45.107Z,93.65
2022-09-09T22:46:13.688Z,102.00
2022-09-09T22:48:41.490Z,95.60
2022-09-09T22:51:12.329Z,93.95
2022-09-09T22:53:41.619Z,94.93
2022-09-09T22:56:15.461Z,93.90
2022-09-09T22:58:43.199Z,93.57
2022-09-09T23:01:14.764Z,95.80
2022-09-09T23:03:46.107Z,97.00
2022-09-09T23:08:55.988Z,90.57
2022-09-09T23:11:28.122Z,92.18
2022-09-09T23:16:25.967Z,90.15
2022-09-09T23:18:55.220Z,85.65
2022-09-09T23:21:26.399Z,79.90
2022-09-09T23:23:54.636Z,86.40
2022-09-09T23:26:24.109Z,82.55
2022-09-09T23:28:52.574Z,79.07
2022-09-09T23:31:22.447Z,81.85
2022-09-09T23:33:49.983Z,74.75
2022-09-09T23:36:19.929Z,75.50
2022-09-09T23:38:47.692Z,76.30
2022-09-09T23:41:20.973Z,83.55
2022-09-09T23:43:53.191Z,84.00
2022-09-09T23:46:25.279Z,74.78
2022-09-09T23:48:52.597Z,69.88
2022-09-09T23:51:23.740Z,80.45
2022-09-09T23:53:54.016Z,81.63
2022-09-09T23:56:22.544Z,78.22
2022-09-09T23:58:51.043Z,73.78
